William P Hobby Airport
KHOU : now visible

Airfield :











YOU CAN JOIN US ON...

 
LOGIN :

Register | Disclaimer

   EN    FR    IT 

 









Legend :    VFR   Marginal VFR   IFR   Intensive IFR   Very Intensive IFR
Visi :
Ceiling :
>= 8 km
>= 3000ft
5 to 8 km
1000 to 3000 ft
1500m to 5 km
500 to 1000 ft
800 to 1500m
200 to 500 ft
< 800m
< 200 ft
Symbols :   Thunderstorms  Fog  Heavy snow  Heavy precipitations  Wind > 20 kt







- Airport Elevation : 46 ft
- IATA code : HOU


KHOU - William P Hobby

CURRENT METAR :
  • 180353Z 15004KT 10SM FEW043 FEW250 27/22 A2990 RMK AO2 SLP129 T02670222

EXPIRED METARs :
  • 180253Z 13006KT 10SM FEW030 FEW250 27/22 A2989 RMK AO2 SLP126 T02720222 51020
  • 180153Z 11007KT 10SM FEW030 FEW250 28/22 A2988 RMK AO2 SLP123 T02780222

TAF KHOU
Valid from the 18 at 00:00 until the 19 at 00:00 UTC


172320Z 1800/1824 VRB04KT P6SM FEW040
FM180200 00000KT P6SM SKC
FM181400 VRB03KT P6SM FEW030 SCT250
FM181700 19006KT P6SM FEW035 SCT250
KZHU FIR / North America



MET'MAP, your aeronautical weather chart ! - Copyright ORBIFLY December 2007 - Disclaimer

ORBIFLY MET'MAP TEAM :

Programming & Development : Alexandra Zaïnal
Concept & Development : Baudouin d'Aumeries
Co-Development & Prog : Marc-Olivier Méhu
Technical & hardware support : Manuel Goepfert

Contact : metmap@orbifly.com




SOURCES & CREDITS :

   NOAA       Earth
Advisory